Time;durP1;ratioP1;P1;durP2;ratioP2;P2;SDS_P1;SDS_P2;PMS_P1;PMS_P2;Temp;Humidity;BMP_temperature;BMP_pressure;BME280_temperature;BME280_humidity;BME280_pressure;Samples;Min_cycle;Max_cycle;Signal;HPM_P1;HPM_P2
2022/10/27 00:00:44;;;;;;;14.52;6.25;;;;;;;18.07;82.86;101356.94;5062004;28;20093;-61
2022/10/27 00:03:12;;;;;;;16.02;5.40;;;;;;;18.27;82.41;101351.22;5074687;28;20491;-61
2022/10/27 00:05:44;;;;;;;13.73;5.80;;;;;;;18.09;82.21;101354.63;5060637;28;20059;-62
2022/10/27 00:08:20;;;;;;;16.55;6.32;;;;;;;18.05;81.44;101360.06;5061219;28;20049;-61
2022/10/27 00:11:02;;;;;;;13.05;5.57;;;;;;;18.07;81.70;101360.53;5059927;28;20072;-61
2022/10/27 00:13:30;;;;;;;13.90;5.40;;;;;;;17.79;82.05;101363.19;5070529;28;20044;-62
2022/10/27 00:16:09;;;;;;;14.77;4.20;;;;;;;17.94;83.01;101368.06;5074114;28;20036;-62
2022/10/27 00:18:37;;;;;;;12.55;4.47;;;;;;;18.17;82.54;101375.97;5075011;28;20075;-62
2022/10/27 00:21:07;;;;;;;13.65;4.00;;;;;;;18.29;81.75;101381.59;5072206;28;20060;-62
2022/10/27 00:23:35;;;;;;;9.38;3.20;;;;;;;17.68;82.46;101381.50;5074184;28;20063;-62
2022/10/27 00:26:02;;;;;;;9.15;3.40;;;;;;;17.90;83.13;101381.06;5062521;28;20391;-62
2022/10/27 00:28:30;;;;;;;9.32;3.53;;;;;;;18.02;83.11;101383.09;5059382;28;20064;-61
2022/10/27 00:30:59;;;;;;;10.15;3.28;;;;;;;18.07;82.50;101379.25;5073600;28;20048;-61
2022/10/27 00:33:27;;;;;;;8.15;3.00;;;;;;;17.82;80.22;101373.66;5060554;28;20056;-61
2022/10/27 00:35:54;;;;;;;12.50;3.13;;;;;;;17.96;83.00;101373.31;5061704;28;20049;-61
2022/10/27 00:38:22;;;;;;;8.27;2.97;;;;;;;17.87;82.84;101361.44;5068597;28;20404;-61
2022/10/27 00:40:49;;;;;;;8.30;2.90;;;;;;;17.92;83.11;101366.81;5064028;28;20135;-60
2022/10/27 00:43:38;;;;;;;8.02;2.75;;;;;;;17.91;83.19;101366.00;5061618;28;20492;-59
2022/10/27 00:46:18;;;;;;;13.13;2.70;;;;;;;17.91;81.81;101363.22;5073350;28;20052;-60
2022/10/27 00:48:47;;;;;;;7.45;2.80;;;;;;;18.00;83.01;101363.09;5072669;28;20044;-60
2022/10/27 00:51:15;;;;;;;9.30;3.00;;;;;;;17.95;82.76;101369.72;5073695;28;20052;-60
2022/10/27 00:53:44;;;;;;;9.57;2.70;;;;;;;17.96;83.31;101365.75;5075225;28;20071;-60
2022/10/27 00:56:11;;;;;;;9.63;2.70;;;;;;;18.11;82.75;101358.69;5072540;28;20391;-61
2022/10/27 00:58:39;;;;;;;9.07;2.42;;;;;;;18.01;82.47;101356.34;5074497;28;20048;-61
2022/10/27 01:01:06;;;;;;;6.50;2.17;;;;;;;18.16;82.38;101364.03;5072071;28;20052;-61
2022/10/27 01:03:34;;;;;;;6.78;2.45;;;;;;;18.18;81.96;101346.94;5074695;28;20048;-61
2022/10/27 01:06:01;;;;;;;9.32;2.75;;;;;;;18.13;82.08;101352.78;5073458;28;20040;-60
2022/10/27 01:08:29;;;;;;;9.88;2.88;;;;;;;18.09;82.84;101347.06;5073023;28;20543;-60
2022/10/27 01:10:56;;;;;;;9.60;2.67;;;;;;;18.11;82.56;101347.53;5067248;28;20147;-60
2022/10/27 01:13:23;;;;;;;6.00;2.30;;;;;;;17.96;82.81;101351.00;5058338;28;20049;-60
2022/10/27 01:16:03;;;;;;;8.57;2.50;;;;;;;17.94;82.54;101356.09;5064041;28;20135;-59
2022/10/27 01:18:45;;;;;;;8.25;2.40;;;;;;;18.06;82.62;101355.31;5063600;28;20045;-60
2022/10/27 01:21:27;;;;;;;9.65;2.40;;;;;;;17.96;82.96;101349.03;5061958;28;20491;-60
2022/10/27 01:24:13;;;;;;;7.80;2.38;;;;;;;17.79;83.61;101354.84;5050474;28;20060;-60
2022/10/27 01:26:52;;;;;;;9.70;2.35;;;;;;;17.92;83.84;101341.72;5064052;28;20040;-60
2022/10/27 01:29:31;;;;;;;8.48;2.58;;;;;;;17.65;83.62;101343.19;5039975;28;20056;-60
2022/10/27 01:32:22;;;;;;;3.95;2.22;;;;;;;17.57;84.67;101338.53;5070716;28;20059;-60
2022/10/27 01:34:51;;;;;;;;;;;;;;;17.64;83.75;101332.41;5057359;28;20045;-61
2022/10/27 01:37:36;;;;;;;4.68;2.10;;;;;;;17.70;84.20;101336.56;5068536;28;19928;-59
2022/10/27 01:40:15;;;;;;;9.65;2.50;;;;;;;17.39;84.09;101334.28;5054316;28;20055;-59
2022/10/27 01:42:47;;;;;;;7.53;2.40;;;;;;;17.51;85.64;101337.13;5065162;28;20060;-60
2022/10/27 01:45:19;;;;;;;8.38;2.63;;;;;;;17.63;85.51;101333.53;5064447;28;20079;-59
2022/10/27 01:47:47;;;;;;;11.73;3.38;;;;;;;17.68;84.94;101334.13;5072097;28;20059;-60
2022/10/27 01:50:19;;;;;;;10.65;4.47;;;;;;;17.65;82.14;101334.03;5066918;28;20041;-61
2022/10/27 01:52:48;;;;;;;17.25;7.50;;;;;;;17.04;83.81;101335.78;5072557;28;20055;-61
2022/10/27 01:55:25;;;;;;;19.15;8.60;;;;;;;16.71;85.51;101334.94;5071747;28;20400;-61
2022/10/27 01:58:07;;;;;;;14.90;6.75;;;;;;;16.70;87.41;101336.09;5058043;28;20060;-61
2022/10/27 02:01:09;;;;;;;14.07;6.82;;;;;;;16.80;87.31;101328.16;5073977;28;20041;-60
2022/10/27 02:03:49;;;;;;;18.88;7.45;;;;;;;17.11;87.60;101330.47;5074474;28;20100;-60
2022/10/27 02:06:40;;;;;;;16.75;7.53;;;;;;;16.79;85.50;101331.25;5072323;28;20053;-61
2022/10/27 02:09:35;;;;;;;14.07;7.75;;;;;;;16.94;86.21;101321.47;5074313;28;20048;-60
2022/10/27 02:12:09;;;;;;;10.70;5.32;;;;;;;16.87;86.05;101313.69;5073469;28;20765;-60
2022/10/27 02:14:37;;;;;;;12.27;4.20;;;;;;;16.99;87.76;101319.31;5052196;28;20060;-60
2022/10/27 02:17:06;;;;;;;9.60;3.78;;;;;;;17.13;85.89;101311.47;5068134;28;20052;-60
2022/10/27 02:19:36;;;;;;;11.82;3.05;;;;;;;17.23;86.80;101299.91;5072641;28;20052;-61
2022/10/27 02:22:04;;;;;;;11.18;3.00;;;;;;;17.35;85.73;101308.28;5057879;28;20727;-60
2022/10/27 02:24:31;;;;;;;7.35;3.03;;;;;;;17.30;84.67;101318.81;5053570;28;20045;-60
2022/10/27 02:27:10;;;;;;;7.18;2.45;;;;;;;17.25;85.43;101307.91;5072364;28;20053;-60
2022/10/27 02:29:43;;;;;;;9.30;2.80;;;;;;;17.17;86.24;101306.03;5073766;28;20095;-60
2022/10/27 02:32:14;;;;;;;7.45;3.08;;;;;;;17.32;85.39;101306.19;5073820;28;20056;-60
2022/10/27 02:34:42;;;;;;;7.80;2.90;;;;;;;17.26;84.69;101301.19;5056086;28;20052;-61
2022/10/27 02:37:18;;;;;;;8.90;2.38;;;;;;;17.09;86.61;101293.81;5076491;28;20045;-60
2022/10/27 02:39:45;;;;;;;9.10;2.60;;;;;;;17.23;85.29;101291.53;5078020;28;20060;-60
2022/10/27 02:42:12;;;;;;;6.82;2.33;;;;;;;17.16;86.06;101290.47;5072330;28;20381;-60
2022/10/27 02:44:40;;;;;;;10.95;2.67;;;;;;;17.08;85.78;101288.59;5056290;28;20053;-60
2022/10/27 02:47:07;;;;;;;7.95;2.83;;;;;;;17.35;86.85;101285.19;5073388;28;20048;-60
2022/10/27 02:49:36;;;;;;;8.68;2.45;;;;;;;16.88;83.52;101297.81;5077656;28;20064;-60
2022/10/27 02:52:03;;;;;;;7.68;2.67;;;;;;;16.56;86.87;101300.19;5076790;28;20046;-60
2022/10/27 02:54:31;;;;;;;9.18;2.75;;;;;;;16.44;85.36;101300.09;5077170;28;20049;-60
2022/10/27 02:56:58;;;;;;;12.18;2.38;;;;;;;16.78;88.06;101299.03;5072627;28;20049;-60
2022/10/27 02:59:25;;;;;;;8.30;2.20;;;;;;;16.99;87.24;101304.56;5086433;28;20519;-59
2022/10/27 03:01:53;;;;;;;13.55;3.08;;;;;;;16.89;87.51;101291.91;5077025;28;20079;-60
2022/10/27 03:04:20;;;;;;;11.90;2.80;;;;;;;17.28;86.82;101299.66;5095790;28;20082;-59
2022/10/27 03:06:47;;;;;;;10.50;2.63;;;;;;;17.40;84.45;101296.91;5083478;28;20072;-60
2022/10/27 03:09:15;;;;;;;9.77;2.25;;;;;;;17.38;84.76;101296.44;5076135;28;20059;-60
2022/10/27 03:11:42;;;;;;;9.48;2.97;;;;;;;17.10;84.09;101292.69;5075384;28;20056;-61
2022/10/27 03:14:12;;;;;;;;;;;;;;;16.71;83.25;101298.75;5077942;28;20052;-59
2022/10/27 03:16:39;;;;;;;11.15;2.70;;;;;;;16.61;84.42;101294.44;5076275;28;19920;-60
2022/10/27 03:19:06;;;;;;;9.05;2.78;;;;;;;16.37;86.57;101296.25;5077200;28;20052;-60
2022/10/27 03:21:34;;;;;;;9.20;2.50;;;;;;;16.46;88.56;101297.81;5076471;28;20389;-60
2022/10/27 03:24:01;;;;;;;9.90;2.65;;;;;;;16.54;86.88;101291.38;5077126;28;20063;-60
2022/10/27 03:26:28;;;;;;;12.57;3.00;;;;;;;16.76;87.27;101299.38;5075064;28;20055;-60
2022/10/27 03:28:55;;;;;;;9.55;2.70;;;;;;;17.10;86.78;101291.84;5077639;28;20063;-60
2022/10/27 03:31:23;;;;;;;4.93;2.50;;;;;;;17.20;85.23;101297.81;5075026;28;20060;-60
2022/10/27 03:33:50;;;;;;;13.68;2.50;;;;;;;17.13;84.38;101302.28;5075917;28;20044;-60
2022/10/27 03:36:17;;;;;;;7.90;2.33;;;;;;;16.75;84.57;101299.72;5076166;28;20036;-60
2022/10/27 03:38:45;;;;;;;8.45;2.55;;;;;;;17.06;85.67;101300.06;5076845;28;20048;-59
2022/10/27 03:41:12;;;;;;;10.15;2.53;;;;;;;16.66;82.51;101299.78;5076158;28;20554;-60
2022/10/27 03:43:39;;;;;;;6.63;2.40;;;;;;;16.97;85.64;101299.34;5076222;28;20562;-60
2022/10/27 03:46:08;;;;;;;9.50;2.70;;;;;;;16.95;84.92;101292.47;5075676;28;20052;-64
2022/10/27 03:48:36;;;;;;;8.27;2.60;;;;;;;17.13;85.37;101293.94;5073705;28;20048;-60
2022/10/27 03:51:03;;;;;;;8.82;2.53;;;;;;;17.06;84.05;101293.69;5076123;28;20078;-59
2022/10/27 03:53:30;;;;;;;7.65;2.80;;;;;;;17.35;84.99;101288.78;5075166;28;20621;-60
2022/10/27 03:55:57;;;;;;;7.60;2.35;;;;;;;17.27;82.81;101289.72;5075725;28;20052;-60
2022/10/27 03:58:25;;;;;;;6.93;2.22;;;;;;;17.40;84.13;101290.56;5076611;28;20048;-60
2022/10/27 04:00:52;;;;;;;7.43;2.67;;;;;;;17.24;83.00;101287.63;5076003;28;20044;-60
2022/10/27 04:03:19;;;;;;;4.72;2.05;;;;;;;17.35;84.23;101291.56;5073963;28;20048;-60
2022/10/27 04:05:49;;;;;;;5.75;2.35;;;;;;;17.21;82.91;101302.19;5075338;28;20041;-60
2022/10/27 04:08:17;;;;;;;;;;;;;;;17.24;83.68;101281.22;5075157;28;20044;-60
2022/10/27 04:10:45;;;;;;;7.32;2.72;;;;;;;17.37;83.94;101289.25;5076069;28;19920;-60
2022/10/27 04:13:12;;;;;;;12.98;3.03;;;;;;;17.15;83.85;101291.63;5074632;28;20051;-60
2022/10/27 04:15:39;;;;;;;13.90;2.63;;;;;;;16.98;82.05;101300.16;5075197;28;20048;-59
2022/10/27 04:18:07;;;;;;;9.77;2.55;;;;;;;17.16;84.64;101298.81;5076000;28;20633;-61
2022/10/27 04:20:34;;;;;;;8.45;2.78;;;;;;;17.13;82.81;101296.72;5075478;28;20278;-61
2022/10/27 04:23:01;;;;;;;7.43;2.60;;;;;;;17.19;83.86;101296.16;5076022;28;20097;-60
2022/10/27 04:25:28;;;;;;;8.73;2.38;;;;;;;17.27;83.54;101302.81;5075772;28;20063;-59
2022/10/27 04:28:06;;;;;;;7.25;2.45;;;;;;;17.03;81.15;101305.53;5073820;28;20056;-60
2022/10/27 04:30:33;;;;;;;10.23;2.53;;;;;;;16.58;83.06;101297.09;5075598;28;20364;-60
2022/10/27 04:33:01;;;;;;;6.88;2.55;;;;;;;16.79;86.24;101300.66;5074378;28;20053;-60
2022/10/27 04:35:28;;;;;;;10.73;2.65;;;;;;;16.87;86.09;101291.44;5074978;28;20056;-60
2022/10/27 04:37:56;;;;;;;9.85;2.60;;;;;;;17.08;84.79;101285.81;5075322;28;20044;-59
2022/10/27 04:40:23;;;;;;;9.38;2.58;;;;;;;17.12;83.97;101279.19;5073286;28;20500;-60
2022/10/27 04:42:50;;;;;;;8.20;2.53;;;;;;;17.19;84.72;101278.66;5074049;28;20044;-59
2022/10/27 04:45:18;;;;;;;8.63;2.50;;;;;;;17.28;84.05;101277.41;5075202;28;20060;-59
2022/10/27 04:47:45;;;;;;;9.25;2.60;;;;;;;17.04;81.72;101270.94;5075356;28;20044;-60
2022/10/27 04:50:14;;;;;;;8.77;2.60;;;;;;;17.10;83.40;101278.75;5075575;28;20079;-60
2022/10/27 04:52:41;;;;;;;7.03;2.70;;;;;;;16.99;82.68;101277.56;5055386;28;20045;-63
2022/10/27 04:55:10;;;;;;;7.25;2.72;;;;;;;17.04;82.16;101276.50;5051274;28;20060;-60
2022/10/27 04:57:37;;;;;;;11.82;2.60;;;;;;;17.16;83.88;101270.97;5080774;28;20040;-61
2022/10/27 05:00:05;;;;;;;10.15;3.00;;;;;;;16.80;83.20;101280.84;5079453;28;20538;-61
2022/10/27 05:02:33;;;;;;;7.53;2.42;;;;;;;16.56;83.16;101280.72;5076526;28;20044;-60
2022/10/27 05:05:05;;;;;;;10.07;2.72;;;;;;;16.51;83.97;101288.47;5095606;28;20044;-59
2022/10/27 05:07:32;;;;;;;9.30;2.90;;;;;;;16.36;85.14;101283.47;5072447;28;20045;-59
2022/10/27 05:09:59;;;;;;;6.95;3.10;;;;;;;16.20;86.21;101283.25;5089198;28;20048;-61
2022/10/27 05:12:26;;;;;;;9.02;2.70;;;;;;;16.02;84.97;101275.38;5072998;28;20142;-60
2022/10/27 05:14:54;;;;;;;15.10;3.45;;;;;;;15.97;86.80;101278.34;5074884;28;20518;-61
2022/10/27 05:17:21;;;;;;;7.38;2.83;;;;;;;16.41;88.63;101266.59;5074187;28;20045;-60
2022/10/27 05:19:53;;;;;;;8.43;2.70;;;;;;;16.47;87.77;101268.88;5074820;28;20060;-60
2022/10/27 05:22:21;;;;;;;12.23;2.90;;;;;;;16.54;87.14;101262.75;5073823;28;20045;-60
2022/10/27 05:24:48;;;;;;;12.23;3.13;;;;;;;16.49;84.48;101268.53;5073272;28;20059;-60
2022/10/27 05:27:15;;;;;;;8.25;2.72;;;;;;;16.86;85.92;101264.75;5072514;28;20056;-60
2022/10/27 05:29:43;;;;;;;7.43;2.60;;;;;;;17.07;84.92;101257.16;5074917;28;20059;-60
2022/10/27 05:32:10;;;;;;;7.10;2.15;;;;;;;17.19;84.17;101259.19;5071968;28;20432;-60
2022/10/27 05:34:37;;;;;;;12.57;3.00;;;;;;;17.30;82.90;101260.34;5074795;28;20056;-61
2022/10/27 05:37:05;;;;;;;8.68;2.42;;;;;;;17.00;82.98;101259.69;5073851;28;20059;-61
2022/10/27 05:39:32;;;;;;;7.00;2.65;;;;;;;17.08;82.93;101263.53;5074511;28;20052;-61
2022/10/27 05:41:59;;;;;;;9.85;3.00;;;;;;;16.89;83.79;101262.09;5073815;28;20067;-61
2022/10/27 05:44:26;;;;;;;7.78;3.50;;;;;;;17.04;84.40;101260.63;5078247;28;20052;-61
2022/10/27 05:46:54;;;;;;;12.07;2.80;;;;;;;16.91;83.98;101250.63;5075913;28;20059;-60
2022/10/27 05:49:22;;;;;;;10.15;3.20;;;;;;;16.74;83.46;101261.91;5073349;28;20052;-60
2022/10/27 05:51:50;;;;;;;11.88;3.30;;;;;;;16.68;83.53;101260.50;5066102;28;20404;-61
2022/10/27 05:54:18;;;;;;;9.55;3.00;;;;;;;16.95;84.51;101242.38;5055337;28;20049;-60
2022/10/27 05:56:45;;;;;;;8.10;3.20;;;;;;;16.88;82.73;101245.72;5067345;28;20152;-60
2022/10/27 05:59:12;;;;;;;8.68;3.33;;;;;;;16.79;83.21;101239.44;5074421;28;20047;-61
2022/10/27 06:01:39;;;;;;;11.45;3.60;;;;;;;17.11;83.81;101244.19;5072539;28;20408;-61
2022/10/27 06:04:07;;;;;;;8.85;2.90;;;;;;;16.86;82.69;101232.16;5074547;28;20048;-60
2022/10/27 06:06:34;;;;;;;11.52;3.80;;;;;;;16.97;82.37;101229.78;5073622;28;20059;-59
2022/10/27 06:09:02;;;;;;;12.02;4.03;;;;;;;16.46;81.22;101233.00;5073032;28;20040;-60
2022/10/27 06:11:29;;;;;;;9.68;3.45;;;;;;;16.47;86.21;101240.25;5072871;28;20063;-61
2022/10/27 06:13:56;;;;;;;12.93;3.88;;;;;;;16.61;84.23;101246.34;5074590;28;20040;-62
2022/10/27 06:16:24;;;;;;;9.52;3.13;;;;;;;16.97;84.88;101246.47;5071094;28;20053;-61
2022/10/27 06:18:52;;;;;;;11.63;3.90;;;;;;;16.81;83.59;101245.47;5074271;28;20538;-61
2022/10/27 06:21:20;;;;;;;8.38;3.45;;;;;;;17.18;84.14;101235.25;5069644;28;20048;-59
2022/10/27 06:23:48;;;;;;;10.23;3.65;;;;;;;17.09;83.15;101228.97;5056878;28;20049;-60
2022/10/27 06:26:16;;;;;;;15.20;3.80;;;;;;;17.25;83.12;101221.59;5062473;28;20060;-60
2022/10/27 06:28:43;;;;;;;18.80;11.93;;;;;;;17.16;81.64;101213.34;5074320;28;20049;-60
2022/10/27 06:31:10;;;;;;;15.27;5.00;;;;;;;17.18;82.08;101213.00;5071105;28;20055;-60
2022/10/27 06:33:37;;;;;;;10.23;3.22;;;;;;;17.35;83.01;101213.59;5069144;28;20068;-60
2022/10/27 06:36:05;;;;;;;13.48;4.25;;;;;;;17.22;81.09;101219.50;5072104;28;20056;-60
2022/10/27 06:38:32;;;;;;;13.23;5.75;;;;;;;17.30;82.41;101222.19;5073795;28;20048;-61
2022/10/27 06:40:59;;;;;;;13.95;4.55;;;;;;;17.49;82.19;101218.84;5073681;28;20055;-61
2022/10/27 06:43:26;;;;;;;12.73;3.67;;;;;;;17.42;80.42;101218.59;5067333;28;20057;-60
2022/10/27 06:45:53;;;;;;;11.75;3.10;;;;;;;17.26;81.67;101228.78;5071355;28;20482;-59
2022/10/27 06:48:25;;;;;;;12.32;3.60;;;;;;;17.16;81.22;101224.47;5072111;28;20045;-61
2022/10/27 06:50:53;;;;;;;7.47;3.95;;;;;;;17.24;83.98;101226.38;5067468;28;20052;-62
2022/10/27 06:53:20;;;;;;;14.77;3.63;;;;;;;17.28;82.26;101216.13;5072631;28;20483;-61
2022/10/27 06:55:47;;;;;;;15.60;3.40;;;;;;;17.18;82.26;101216.59;5066809;28;20661;-60
2022/10/27 06:58:14;;;;;;;15.60;4.28;;;;;;;16.76;80.70;101212.31;5066350;28;20055;-61
2022/10/27 07:00:41;;;;;;;14.95;3.90;;;;;;;16.80;85.03;101213.25;5066057;28;20630;-61
2022/10/27 07:03:09;;;;;;;13.02;4.82;;;;;;;16.67;83.19;101217.13;5069347;28;20071;-63
2022/10/27 07:05:41;;;;;;;17.33;6.43;;;;;;;17.12;84.76;101222.75;5072818;28;20036;-62
2022/10/27 07:08:08;;;;;;;15.57;4.30;;;;;;;16.78;81.33;101243.38;5079733;28;20032;-62
2022/10/27 07:10:36;;;;;;;15.95;4.30;;;;;;;17.05;83.44;101239.97;5070436;28;20060;-63
2022/10/27 07:13:03;;;;;;;15.18;4.53;;;;;;;17.07;79.08;101254.38;5067913;28;20052;-62
2022/10/27 07:15:32;;;;;;;13.90;3.78;;;;;;;17.10;77.68;101248.13;5067549;28;20056;-62
2022/10/27 07:18:02;;;;;;;10.52;3.70;;;;;;;17.29;78.48;101250.38;5062749;28;20052;-62
2022/10/27 07:20:32;;;;;;;10.65;3.53;;;;;;;17.07;79.21;101246.03;5069692;28;20056;-61
2022/10/27 07:23:00;;;;;;;13.27;4.00;;;;;;;16.88;80.03;101256.88;5066787;28;20060;-61
2022/10/27 07:25:29;;;;;;;13.77;4.53;;;;;;;17.11;80.88;101254.50;5078000;28;20157;-61
2022/10/27 07:27:57;;;;;;;9.25;4.20;;;;;;;17.36;82.40;101275.69;5066864;28;20041;-60
2022/10/27 07:30:31;;;;;;;11.00;3.60;;;;;;;17.37;81.97;101292.03;5069663;28;20695;-63
2022/10/27 07:32:58;;;;;;;18.70;4.82;;;;;;;17.30;80.83;101308.50;5073558;28;20044;-63
2022/10/27 07:35:26;;;;;;;16.50;4.22;;;;;;;17.21;78.73;101296.63;5064247;28;20095;-61
2022/10/27 07:37:53;;;;;;;22.52;4.93;;;;;;;17.32;78.45;101288.66;5080260;28;20045;-63
2022/10/27 07:40:22;;;;;;;11.45;4.22;;;;;;;17.22;78.23;101281.56;5062331;28;20423;-62
2022/10/27 07:42:59;;;;;;;14.27;4.07;;;;;;;17.42;78.96;101293.78;5068285;28;20628;-62
2022/10/27 07:45:36;;;;;;;13.25;4.05;;;;;;;17.55;78.37;101301.03;5068129;28;20044;-63
2022/10/27 07:48:05;;;;;;;10.83;3.67;;;;;;;17.60;77.98;101292.47;5068132;28;20067;-62
2022/10/27 07:50:33;;;;;;;10.88;3.38;;;;;;;17.56;76.82;101280.38;5065785;28;20075;-62
2022/10/27 07:53:01;;;;;;;12.77;3.65;;;;;;;17.65;76.96;101295.00;5067461;28;20071;-62
2022/10/27 07:55:30;;;;;;;15.50;3.65;;;;;;;17.60;76.87;101284.91;5073313;28;20056;-61
2022/10/27 07:58:02;;;;;;;12.95;3.83;;;;;;;17.71;77.20;101288.84;5061067;28;20045;-62
2022/10/27 08:00:33;;;;;;;22.08;4.30;;;;;;;17.93;76.90;101280.06;5066244;28;20365;-62
2022/10/27 08:03:02;;;;;;;13.13;4.22;;;;;;;18.02;76.47;101279.94;5071680;28;20053;-61
2022/10/27 08:05:34;;;;;;;14.35;4.30;;;;;;;17.95;76.23;101286.09;5065883;28;20061;-62
2022/10/27 08:08:03;;;;;;;11.95;3.88;;;;;;;17.91;75.57;101293.53;5068259;28;20095;-62
2022/10/27 08:10:32;;;;;;;12.57;4.60;;;;;;;17.87;75.41;101281.44;5065909;28;20053;-63
2022/10/27 08:13:00;;;;;;;17.40;4.43;;;;;;;17.93;75.38;101282.84;5046888;28;20063;-62
2022/10/27 08:15:27;;;;;;;17.88;4.25;;;;;;;17.71;75.69;101288.84;5064371;28;20408;-63
2022/10/27 08:17:58;;;;;;;19.10;4.47;;;;;;;17.75;75.77;101288.97;5072214;28;20063;-61
2022/10/27 08:20:27;;;;;;;12.77;5.38;;;;;;;17.54;76.34;101293.84;5071353;28;20044;-62
2022/10/27 08:22:58;;;;;;;17.65;5.00;;;;;;;17.79;75.83;101287.94;5067248;28;20060;-60
2022/10/27 08:25:26;;;;;;;16.20;5.13;;;;;;;18.02;74.76;101293.88;5071829;28;20036;-62
2022/10/27 08:27:55;;;;;;;21.92;5.38;;;;;;;17.93;74.10;101293.19;5073158;28;20155;-61
2022/10/27 08:30:23;;;;;;;14.30;4.68;;;;;;;17.89;75.89;101295.03;5072700;28;20063;-62
2022/10/27 08:32:55;;;;;;;26.25;5.05;;;;;;;17.80;76.28;101306.28;5056123;28;20349;-61
2022/10/27 08:35:23;;;;;;;17.27;4.97;;;;;;;17.73;76.24;101303.25;5066168;28;20049;-61
2022/10/27 08:38:04;;;;;;;15.73;4.35;;;;;;;17.89;75.23;101301.41;5067986;28;20044;-60
2022/10/27 08:40:41;;;;;;;24.80;4.65;;;;;;;17.91;75.63;101306.63;5068631;28;20060;-61
2022/10/27 08:43:11;;;;;;;13.85;3.97;;;;;;;17.91;75.17;101299.09;5073533;28;20598;-61
2022/10/27 08:45:49;;;;;;;10.48;4.00;;;;;;;18.03;74.95;101297.47;5066114;28;20036;-62
2022/10/27 08:48:22;;;;;;;11.95;4.32;;;;;;;17.93;74.95;101298.75;5059521;28;20048;-62
2022/10/27 08:50:49;;;;;;;13.32;4.82;;;;;;;17.94;75.38;101306.75;5065098;28;20163;-61
2022/10/27 08:53:24;;;;;;;13.95;4.97;;;;;;;17.89;76.16;101320.94;5055184;28;20063;-62
2022/10/27 08:55:53;;;;;;;16.85;4.85;;;;;;;17.59;77.13;101313.13;5072100;28;20052;-61
2022/10/27 08:58:46;;;;;;;13.05;4.50;;;;;;;17.79;76.63;101317.78;5068038;28;20044;-61
2022/10/27 09:01:39;;;;;;;16.60;5.57;;;;;;;18.20;76.08;101305.59;5065190;28;20067;-62
2022/10/27 09:04:18;;;;;;;13.55;4.85;;;;;;;18.34;74.82;101320.78;5060716;28;20064;-60
2022/10/27 09:07:12;;;;;;;19.83;4.77;;;;;;;18.44;74.96;101317.56;5076756;28;20056;-61
2022/10/27 09:09:53;;;;;;;15.63;4.30;;;;;;;18.10;75.63;101326.38;5074770;28;20298;-60
2022/10/27 09:12:39;;;;;;;11.80;4.15;;;;;;;18.43;74.88;101326.28;5074779;28;20056;-61
2022/10/27 09:15:25;;;;;;;13.85;4.57;;;;;;;18.62;74.57;101329.28;5061119;28;20043;-61
2022/10/27 09:18:10;;;;;;;15.40;4.45;;;;;;;18.85;73.67;101321.97;5064502;28;20049;-61
2022/10/27 09:20:51;;;;;;;12.50;4.07;;;;;;;18.64;73.06;101318.53;5064047;28;20051;-62
2022/10/27 09:23:27;;;;;;;13.80;4.15;;;;;;;18.70;73.31;101328.31;5065325;28;20506;-62
2022/10/27 09:25:57;;;;;;;12.50;4.45;;;;;;;19.08;72.80;101337.00;5068761;28;20052;-62
2022/10/27 09:28:38;;;;;;;15.23;4.32;;;;;;;19.18;72.37;101335.69;5072578;28;20052;-61
2022/10/27 09:31:10;;;;;;;12.43;4.00;;;;;;;19.28;71.86;101347.16;5064889;28;20059;-62
2022/10/27 09:33:43;;;;;;;16.05;4.00;;;;;;;19.24;71.83;101354.63;5066572;28;20067;-62
2022/10/27 09:36:13;;;;;;;13.07;3.97;;;;;;;19.48;71.38;101348.94;5050263;28;20037;-64
2022/10/27 09:38:40;;;;;;;;;;;;;;;19.09;71.11;101338.63;5061792;28;20059;-63
2022/10/27 09:41:07;;;;;;;15.82;4.70;;;;;;;19.31;71.72;101346.47;5067608;28;19932;-64
2022/10/27 09:43:36;;;;;;;14.15;3.95;;;;;;;19.57;70.65;101346.81;5051691;28;20061;-65
2022/10/27 09:46:14;;;;;;;13.60;4.00;;;;;;;19.70;70.12;101339.16;5071805;28;20048;-63
2022/10/27 09:48:45;;;;;;;14.65;4.18;;;;;;;19.69;70.10;101332.75;5061301;28;20060;-65
2022/10/27 09:51:24;;;;;;;18.10;4.45;;;;;;;19.82;69.75;101316.69;5067212;28;20052;-63
2022/10/27 09:53:52;;;;;;;16.88;4.13;;;;;;;19.84;69.22;101309.56;5072678;28;20542;-62
2022/10/27 09:56:32;;;;;;;13.30;4.13;;;;;;;19.90;69.22;101302.53;5049872;28;20369;-63
2022/10/27 09:59:01;;;;;;;14.05;4.20;;;;;;;20.06;68.91;101306.13;5068105;28;20048;-63
2022/10/27 10:01:39;;;;;;;19.13;4.70;;;;;;;19.85;69.20;101302.81;5065723;28;20056;-63
2022/10/27 10:04:36;;;;;;;16.65;4.15;;;;;;;19.92;69.11;101305.78;5066668;28;20045;-62
2022/10/27 10:07:05;;;;;;;28.70;10.98;;;;;;;20.03;68.89;101309.63;5033623;28;20716;-63
2022/10/27 10:09:40;;;;;;;49.72;18.85;;;;;;;20.03;68.72;101320.03;5059989;28;20048;-63
2022/10/27 10:12:25;;;;;;;16.23;4.78;;;;;;;19.90;68.25;101321.28;5070837;28;20048;-61
2022/10/27 10:15:10;;;;;;;33.47;13.65;;;;;;;19.97;69.10;101324.25;5068404;28;20072;-66
2022/10/27 10:17:42;;;;;;;16.77;6.28;;;;;;;20.04;69.59;101322.47;5066291;28;20401;-62
2022/10/27 10:20:33;;;;;;;24.75;8.98;;;;;;;20.07;68.39;101324.53;5066420;28;20145;-62
2022/10/27 10:23:15;;;;;;;22.45;10.50;;;;;;;20.19;68.48;101318.03;5076061;28;20047;-61
2022/10/27 10:25:46;;;;;;;23.45;11.38;;;;;;;20.27;68.17;101321.81;5078705;28;20582;-62
2022/10/27 10:28:38;;;;;;;19.75;9.40;;;;;;;20.45;67.90;101326.63;5075736;28;20052;-62
2022/10/27 10:31:11;;;;;;;14.70;5.93;;;;;;;20.36;67.01;101330.84;5077094;28;20040;-61
2022/10/27 10:33:41;;;;;;;15.35;6.40;;;;;;;20.57;67.55;101328.53;5050672;28;20049;-61
2022/10/27 10:36:23;;;;;;;14.95;5.43;;;;;;;20.60;67.06;101334.19;5069087;28;20056;-62
2022/10/27 10:38:56;;;;;;;20.00;5.57;;;;;;;20.49;67.10;101324.75;5075126;28;20036;-62
2022/10/27 10:41:25;;;;;;;15.15;5.10;;;;;;;20.48;68.19;101331.53;5085568;28;20071;-63
2022/10/27 10:44:13;;;;;;;16.10;5.03;;;;;;;20.58;67.64;101342.16;5059943;28;20056;-62
2022/10/27 10:46:52;;;;;;;17.50;6.20;;;;;;;20.81;67.40;101331.06;5071638;28;20048;-63
2022/10/27 10:49:21;;;;;;;15.80;6.37;;;;;;;20.78;68.09;101324.19;5078956;28;20051;-62
2022/10/27 10:51:51;;;;;;;17.80;5.18;;;;;;;20.79;68.34;101316.59;5063784;28;20055;-61
2022/10/27 10:54:33;;;;;;;17.75;5.22;;;;;;;20.75;67.59;101312.91;5071160;28;20047;-61
2022/10/27 10:57:00;;;;;;;13.43;4.78;;;;;;;20.74;67.74;101311.28;5073472;28;20060;-61
2022/10/27 10:59:29;;;;;;;15.23;4.55;;;;;;;20.59;67.64;101321.38;5089214;28;20059;-62
2022/10/27 11:02:15;;;;;;;18.00;5.78;;;;;;;20.75;68.27;101319.31;5081370;28;20048;-62
2022/10/27 11:04:46;;;;;;;14.60;5.43;;;;;;;20.68;67.80;101326.75;5073464;28;20055;-62
2022/10/27 11:07:22;;;;;;;20.67;4.90;;;;;;;20.67;67.60;101325.97;5060194;28;20048;-62
2022/10/27 11:10:05;;;;;;;12.95;4.82;;;;;;;20.84;67.09;101327.50;5070475;28;20044;-61
2022/10/27 11:12:39;;;;;;;17.40;4.72;;;;;;;20.51;67.23;101316.78;5074469;28;20044;-62
2022/10/27 11:15:19;;;;;;;12.07;4.47;;;;;;;20.86;67.92;101309.16;5074806;28;20511;-61
2022/10/27 11:17:47;;;;;;;;;;;;;;;20.94;67.36;101298.91;5075872;28;20052;-63
2022/10/27 11:20:20;;;;;;;9.90;4.78;;;;;;;20.86;66.38;101295.16;5072252;28;19935;-63
2022/10/27 11:22:50;;;;;;;18.20;5.30;;;;;;;20.79;65.98;101294.19;5076374;28;20040;-62
2022/10/27 11:25:21;;;;;;;14.90;5.38;;;;;;;21.15;66.11;101299.38;5073963;28;20052;-61
2022/10/27 11:27:59;;;;;;;15.82;4.32;;;;;;;21.05;65.05;101300.78;5074060;28;20063;-61
2022/10/27 11:30:28;;;;;;;15.27;4.60;;;;;;;21.12;65.63;101300.13;5074251;28;20041;-62
2022/10/27 11:33:18;;;;;;;25.33;11.77;;;;;;;21.32;64.59;101296.13;5068790;28;20053;-63
2022/10/27 11:35:52;;;;;;;15.60;6.40;;;;;;;21.37;65.18;101295.00;5059376;28;20403;-62
2022/10/27 11:38:47;;;;;;;21.52;5.53;;;;;;;21.29;64.72;101290.44;5073037;28;20063;-63
2022/10/27 11:41:22;;;;;;;15.63;4.85;;;;;;;21.14;65.05;101294.97;5072302;28;20052;-63